sensor_id;sensor_type;location;lat;lon;timestamp;P1;durP1;ratioP1;P2;durP2;ratioP2
22814;SDS011;11574;51.058;13.712;2023-03-01T00:03:45;33.33;;;16.37;;
22814;SDS011;11574;51.058;13.712;2023-03-01T00:08:48;38.57;;;18.23;;
22814;SDS011;11574;51.058;13.712;2023-03-01T00:13:52;34.00;;;16.00;;
22814;SDS011;11574;51.058;13.712;2023-03-01T00:18:54;31.27;;;16.30;;
22814;SDS011;11574;51.058;13.712;2023-03-01T00:23:57;28.73;;;15.57;;
22814;SDS011;11574;51.058;13.712;2023-03-01T00:29:00;31.10;;;15.93;;
22814;SDS011;11574;51.058;13.712;2023-03-01T00:34:03;32.23;;;16.60;;
22814;SDS011;11574;51.058;13.712;2023-03-01T00:39:09;29.97;;;14.70;;
22814;SDS011;11574;51.058;13.712;2023-03-01T00:44:13;32.03;;;14.73;;
22814;SDS011;11574;51.058;13.712;2023-03-01T00:49:15;36.73;;;14.97;;
22814;SDS011;11574;51.058;13.712;2023-03-01T00:54:17;24.40;;;13.83;;
22814;SDS011;11574;51.058;13.712;2023-03-01T00:59:21;30.63;;;15.23;;
22814;SDS011;11574;51.058;13.712;2023-03-01T01:04:23;26.90;;;14.03;;
22814;SDS011;11574;51.058;13.712;2023-03-01T01:09:27;33.07;;;14.50;;
22814;SDS011;11574;51.058;13.712;2023-03-01T01:14:31;29.90;;;14.30;;
22814;SDS011;11574;51.058;13.712;2023-03-01T01:19:33;32.53;;;14.27;;
22814;SDS011;11574;51.058;13.712;2023-03-01T01:24:38;26.23;;;13.93;;
22814;SDS011;11574;51.058;13.712;2023-03-01T01:29:42;26.33;;;14.53;;
22814;SDS011;11574;51.058;13.712;2023-03-01T01:34:44;28.17;;;14.87;;
22814;SDS011;11574;51.058;13.712;2023-03-01T01:39:47;28.67;;;16.10;;
22814;SDS011;11574;51.058;13.712;2023-03-01T01:50:09;27.17;;;14.03;;
22814;SDS011;11574;51.058;13.712;2023-03-01T01:55:16;25.50;;;14.17;;
22814;SDS011;11574;51.058;13.712;2023-03-01T02:00:21;28.87;;;14.00;;
22814;SDS011;11574;51.058;13.712;2023-03-01T02:05:26;30.47;;;14.67;;
22814;SDS011;11574;51.058;13.712;2023-03-01T02:10:31;30.53;;;14.53;;
22814;SDS011;11574;51.058;13.712;2023-03-01T02:15:35;27.90;;;14.40;;
22814;SDS011;11574;51.058;13.712;2023-03-01T02:20:40;31.03;;;15.50;;
22814;SDS011;11574;51.058;13.712;2023-03-01T02:25:49;32.00;;;15.27;;
22814;SDS011;11574;51.058;13.712;2023-03-01T02:30:54;39.07;;;15.80;;
22814;SDS011;11574;51.058;13.712;2023-03-01T02:36:14;30.87;;;15.17;;
22814;SDS011;11574;51.058;13.712;2023-03-01T02:41:17;27.17;;;14.03;;
22814;SDS011;11574;51.058;13.712;2023-03-01T02:46:23;32.07;;;16.13;;
22814;SDS011;11574;51.058;13.712;2023-03-01T02:51:35;27.20;;;14.43;;
22814;SDS011;11574;51.058;13.712;2023-03-01T02:56:39;29.70;;;14.97;;
22814;SDS011;11574;51.058;13.712;2023-03-01T03:01:43;32.03;;;15.30;;
22814;SDS011;11574;51.058;13.712;2023-03-01T03:06:49;28.87;;;14.57;;
22814;SDS011;11574;51.058;13.712;2023-03-01T03:11:51;29.57;;;14.20;;
22814;SDS011;11574;51.058;13.712;2023-03-01T03:16:55;31.10;;;15.10;;
22814;SDS011;11574;51.058;13.712;2023-03-01T03:21:57;26.63;;;13.60;;
22814;SDS011;11574;51.058;13.712;2023-03-01T03:26:59;32.33;;;15.07;;
22814;SDS011;11574;51.058;13.712;2023-03-01T03:32:03;30.50;;;14.57;;
22814;SDS011;11574;51.058;13.712;2023-03-01T03:37:05;27.00;;;15.10;;
22814;SDS011;11574;51.058;13.712;2023-03-01T03:42:28;31.70;;;14.57;;
22814;SDS011;11574;51.058;13.712;2023-03-01T03:47:32;32.10;;;15.03;;
22814;SDS011;11574;51.058;13.712;2023-03-01T03:52:34;32.70;;;14.90;;
22814;SDS011;11574;51.058;13.712;2023-03-01T03:57:36;28.37;;;14.10;;
22814;SDS011;11574;51.058;13.712;2023-03-01T04:02:40;31.30;;;14.23;;
22814;SDS011;11574;51.058;13.712;2023-03-01T04:07:43;28.17;;;13.53;;
22814;SDS011;11574;51.058;13.712;2023-03-01T04:12:45;27.60;;;14.00;;
22814;SDS011;11574;51.058;13.712;2023-03-01T04:17:50;27.10;;;13.60;;
22814;SDS011;11574;51.058;13.712;2023-03-01T04:22:56;31.43;;;14.27;;
22814;SDS011;11574;51.058;13.712;2023-03-01T04:27:58;25.93;;;12.93;;
22814;SDS011;11574;51.058;13.712;2023-03-01T04:33:02;27.40;;;13.40;;
22814;SDS011;11574;51.058;13.712;2023-03-01T04:38:04;29.00;;;14.83;;
22814;SDS011;11574;51.058;13.712;2023-03-01T04:43:07;30.20;;;15.20;;
22814;SDS011;11574;51.058;13.712;2023-03-01T04:48:12;30.90;;;14.43;;
22814;SDS011;11574;51.058;13.712;2023-03-01T04:53:14;27.50;;;13.33;;
22814;SDS011;11574;51.058;13.712;2023-03-01T04:58:16;34.13;;;14.53;;
22814;SDS011;11574;51.058;13.712;2023-03-01T05:03:20;27.27;;;13.97;;
22814;SDS011;11574;51.058;13.712;2023-03-01T05:08:22;31.53;;;13.50;;
22814;SDS011;11574;51.058;13.712;2023-03-01T05:13:25;32.43;;;14.37;;
22814;SDS011;11574;51.058;13.712;2023-03-01T05:18:31;35.63;;;15.03;;
22814;SDS011;11574;51.058;13.712;2023-03-01T05:23:34;27.43;;;13.93;;
22814;SDS011;11574;51.058;13.712;2023-03-01T05:28:36;27.10;;;14.17;;
22814;SDS011;11574;51.058;13.712;2023-03-01T05:33:40;32.30;;;15.10;;
22814;SDS011;11574;51.058;13.712;2023-03-01T05:38:45;31.47;;;13.77;;
22814;SDS011;11574;51.058;13.712;2023-03-01T05:43:47;27.73;;;13.43;;
22814;SDS011;11574;51.058;13.712;2023-03-01T05:48:51;28.90;;;13.83;;
22814;SDS011;11574;51.058;13.712;2023-03-01T05:53:53;28.73;;;13.27;;
22814;SDS011;11574;51.058;13.712;2023-03-01T05:58:55;27.77;;;13.73;;
22814;SDS011;11574;51.058;13.712;2023-03-01T06:03:59;36.57;;;13.93;;
22814;SDS011;11574;51.058;13.712;2023-03-01T06:09:01;28.03;;;14.37;;
22814;SDS011;11574;51.058;13.712;2023-03-01T06:14:03;28.87;;;13.83;;
22814;SDS011;11574;51.058;13.712;2023-03-01T06:19:07;32.53;;;15.30;;
22814;SDS011;11574;51.058;13.712;2023-03-01T06:24:10;30.83;;;15.60;;
22814;SDS011;11574;51.058;13.712;2023-03-01T06:29:12;37.67;;;16.57;;
22814;SDS011;11574;51.058;13.712;2023-03-01T06:34:15;34.83;;;15.33;;
22814;SDS011;11574;51.058;13.712;2023-03-01T06:39:18;35.47;;;15.83;;
22814;SDS011;11574;51.058;13.712;2023-03-01T06:44:20;30.83;;;16.00;;
22814;SDS011;11574;51.058;13.712;2023-03-01T06:49:23;34.57;;;15.43;;
22814;SDS011;11574;51.058;13.712;2023-03-01T06:54:26;40.40;;;16.90;;
22814;SDS011;11574;51.058;13.712;2023-03-01T06:59:28;35.33;;;16.10;;
22814;SDS011;11574;51.058;13.712;2023-03-01T07:04:31;39.50;;;16.13;;
22814;SDS011;11574;51.058;13.712;2023-03-01T07:09:34;35.40;;;16.50;;
22814;SDS011;11574;51.058;13.712;2023-03-01T07:14:36;39.40;;;17.00;;
22814;SDS011;11574;51.058;13.712;2023-03-01T07:19:39;38.37;;;16.63;;
22814;SDS011;11574;51.058;13.712;2023-03-01T07:24:41;32.73;;;14.57;;
22814;SDS011;11574;51.058;13.712;2023-03-01T07:29:44;29.03;;;15.30;;
22814;SDS011;11574;51.058;13.712;2023-03-01T07:34:47;31.10;;;16.47;;
22814;SDS011;11574;51.058;13.712;2023-03-01T07:39:49;28.07;;;16.37;;
22814;SDS011;11574;51.058;13.712;2023-03-01T07:44:51;25.83;;;15.57;;
22814;SDS011;11574;51.058;13.712;2023-03-01T07:49:55;25.97;;;17.40;;
22814;SDS011;11574;51.058;13.712;2023-03-01T07:54:57;28.33;;;16.77;;
22814;SDS011;11574;51.058;13.712;2023-03-01T07:59:59;29.30;;;16.97;;
22814;SDS011;11574;51.058;13.712;2023-03-01T08:05:03;28.50;;;17.10;;
22814;SDS011;11574;51.058;13.712;2023-03-01T08:10:06;23.30;;;16.63;;
22814;SDS011;11574;51.058;13.712;2023-03-01T08:15:15;26.23;;;16.53;;
22814;SDS011;11574;51.058;13.712;2023-03-01T08:20:20;33.07;;;19.50;;
22814;SDS011;11574;51.058;13.712;2023-03-01T08:25:22;32.27;;;16.43;;
22814;SDS011;11574;51.058;13.712;2023-03-01T08:30:24;26.17;;;15.97;;
22814;SDS011;11574;51.058;13.712;2023-03-01T08:35:28;29.37;;;17.30;;
22814;SDS011;11574;51.058;13.712;2023-03-01T08:40:30;31.47;;;17.97;;
22814;SDS011;11574;51.058;13.712;2023-03-01T08:45:32;39.13;;;19.07;;
22814;SDS011;11574;51.058;13.712;2023-03-01T08:50:36;26.03;;;16.80;;
22814;SDS011;11574;51.058;13.712;2023-03-01T08:55:38;25.37;;;16.63;;
22814;SDS011;11574;51.058;13.712;2023-03-01T09:00:40;26.20;;;16.40;;
22814;SDS011;11574;51.058;13.712;2023-03-01T09:05:44;29.73;;;17.83;;
22814;SDS011;11574;51.058;13.712;2023-03-01T09:10:46;27.35;;;17.00;;
22814;SDS011;11574;51.058;13.712;2023-03-01T09:15:49;25.55;;;16.55;;
22814;SDS011;11574;51.058;13.712;2023-03-01T09:20:53;24.63;;;17.20;;
22814;SDS011;11574;51.058;13.712;2023-03-01T09:26:02;23.73;;;17.45;;
22814;SDS011;11574;51.058;13.712;2023-03-01T09:31:04;26.98;;;16.48;;
22814;SDS011;11574;51.058;13.712;2023-03-01T09:36:10;23.50;;;16.70;;
22814;SDS011;11574;51.058;13.712;2023-03-01T09:41:18;24.70;;;16.38;;
22814;SDS011;11574;51.058;13.712;2023-03-01T09:46:25;29.23;;;16.98;;
22814;SDS011;11574;51.058;13.712;2023-03-01T09:51:31;20.95;;;15.15;;
22814;SDS011;11574;51.058;13.712;2023-03-01T09:56:36;25.42;;;17.20;;
22814;SDS011;11574;51.058;13.712;2023-03-01T10:01:41;26.38;;;17.52;;
22814;SDS011;11574;51.058;13.712;2023-03-01T10:06:50;21.75;;;16.15;;
22814;SDS011;11574;51.058;13.712;2023-03-01T10:11:53;26.30;;;17.43;;
22814;SDS011;11574;51.058;13.712;2023-03-01T10:16:57;25.97;;;17.93;;
22814;SDS011;11574;51.058;13.712;2023-03-01T10:22:05;25.00;;;16.63;;
22814;SDS011;11574;51.058;13.712;2023-03-01T10:27:12;21.83;;;15.33;;
22814;SDS011;11574;51.058;13.712;2023-03-01T10:32:17;26.17;;;15.43;;
22814;SDS011;11574;51.058;13.712;2023-03-01T10:37:23;25.17;;;16.47;;
22814;SDS011;11574;51.058;13.712;2023-03-01T10:42:28;21.83;;;15.67;;
22814;SDS011;11574;51.058;13.712;2023-03-01T10:47:31;25.13;;;16.63;;
22814;SDS011;11574;51.058;13.712;2023-03-01T10:52:35;25.80;;;16.43;;
22814;SDS011;11574;51.058;13.712;2023-03-01T10:57:39;31.80;;;16.60;;
22814;SDS011;11574;51.058;13.712;2023-03-01T11:02:41;24.43;;;15.90;;
22814;SDS011;11574;51.058;13.712;2023-03-01T11:07:48;32.73;;;16.50;;
22814;SDS011;11574;51.058;13.712;2023-03-01T11:12:51;25.53;;;14.70;;
22814;SDS011;11574;51.058;13.712;2023-03-01T11:17:53;23.30;;;15.47;;
22814;SDS011;11574;51.058;13.712;2023-03-01T11:22:58;27.07;;;15.77;;
22814;SDS011;11574;51.058;13.712;2023-03-01T11:28:01;23.27;;;13.90;;
22814;SDS011;11574;51.058;13.712;2023-03-01T11:33:13;21.27;;;13.57;;
22814;SDS011;11574;51.058;13.712;2023-03-01T11:38:21;22.43;;;14.43;;
22814;SDS011;11574;51.058;13.712;2023-03-01T11:43:28;23.63;;;12.87;;
22814;SDS011;11574;51.058;13.712;2023-03-01T11:48:37;20.77;;;11.83;;
22814;SDS011;11574;51.058;13.712;2023-03-01T11:53:49;17.77;;;11.03;;
22814;SDS011;11574;51.058;13.712;2023-03-01T12:04:34;17.93;;;10.10;;
22814;SDS011;11574;51.058;13.712;2023-03-01T12:09:42;13.87;;;9.07;;
22814;SDS011;11574;51.058;13.712;2023-03-01T12:14:51;17.37;;;8.67;;
22814;SDS011;11574;51.058;13.712;2023-03-01T12:20:01;16.97;;;8.90;;
22814;SDS011;11574;51.058;13.712;2023-03-01T12:30:32;20.20;;;9.37;;
22814;SDS011;11574;51.058;13.712;2023-03-01T12:35:47;15.87;;;9.23;;
22814;SDS011;11574;51.058;13.712;2023-03-01T12:40:58;21.70;;;11.40;;
22814;SDS011;11574;51.058;13.712;2023-03-01T12:51:24;26.23;;;12.60;;
22814;SDS011;11574;51.058;13.712;2023-03-01T12:56:28;22.07;;;12.33;;
22814;SDS011;11574;51.058;13.712;2023-03-01T13:01:36;24.80;;;12.37;;
22814;SDS011;11574;51.058;13.712;2023-03-01T13:06:43;20.97;;;11.63;;
22814;SDS011;11574;51.058;13.712;2023-03-01T13:11:46;23.93;;;12.67;;
22814;SDS011;11574;51.058;13.712;2023-03-01T13:16:48;23.87;;;13.03;;
22814;SDS011;11574;51.058;13.712;2023-03-01T13:21:53;22.10;;;13.10;;
22814;SDS011;11574;51.058;13.712;2023-03-01T13:27:20;25.57;;;12.13;;
22814;SDS011;11574;51.058;13.712;2023-03-01T13:32:25;21.83;;;12.40;;
22814;SDS011;11574;51.058;13.712;2023-03-01T13:37:31;22.23;;;12.33;;
22814;SDS011;11574;51.058;13.712;2023-03-01T13:42:36;21.93;;;11.87;;
22814;SDS011;11574;51.058;13.712;2023-03-01T13:47:38;22.50;;;12.00;;
22814;SDS011;11574;51.058;13.712;2023-03-01T13:52:43;19.37;;;11.57;;
22814;SDS011;11574;51.058;13.712;2023-03-01T13:57:46;26.83;;;11.53;;
22814;SDS011;11574;51.058;13.712;2023-03-01T14:03:00;21.03;;;11.60;;
22814;SDS011;11574;51.058;13.712;2023-03-01T14:08:03;26.40;;;11.97;;
22814;SDS011;11574;51.058;13.712;2023-03-01T14:13:09;21.87;;;11.50;;
22814;SDS011;11574;51.058;13.712;2023-03-01T14:18:19;21.87;;;11.97;;
22814;SDS011;11574;51.058;13.712;2023-03-01T14:23:25;28.20;;;13.73;;
22814;SDS011;11574;51.058;13.712;2023-03-01T14:28:29;21.80;;;12.27;;
22814;SDS011;11574;51.058;13.712;2023-03-01T14:33:34;26.73;;;13.00;;
22814;SDS011;11574;51.058;13.712;2023-03-01T14:38:38;22.53;;;11.80;;
22814;SDS011;11574;51.058;13.712;2023-03-01T14:43:41;24.80;;;12.67;;
22814;SDS011;11574;51.058;13.712;2023-03-01T14:48:44;22.67;;;13.10;;
22814;SDS011;11574;51.058;13.712;2023-03-01T14:53:48;21.87;;;11.63;;
22814;SDS011;11574;51.058;13.712;2023-03-01T14:58:51;20.90;;;11.57;;
22814;SDS011;11574;51.058;13.712;2023-03-01T15:03:53;24.23;;;12.10;;
22814;SDS011;11574;51.058;13.712;2023-03-01T15:08:58;21.60;;;11.80;;
22814;SDS011;11574;51.058;13.712;2023-03-01T15:14:00;22.07;;;11.93;;
22814;SDS011;11574;51.058;13.712;2023-03-01T15:19:03;21.93;;;11.53;;
22814;SDS011;11574;51.058;13.712;2023-03-01T15:24:07;19.00;;;10.23;;
22814;SDS011;11574;51.058;13.712;2023-03-01T15:29:14;20.87;;;11.90;;
22814;SDS011;11574;51.058;13.712;2023-03-01T15:34:21;20.43;;;11.40;;
22814;SDS011;11574;51.058;13.712;2023-03-01T15:39:31;20.13;;;10.63;;
22814;SDS011;11574;51.058;13.712;2023-03-01T15:44:38;25.80;;;11.40;;
22814;SDS011;11574;51.058;13.712;2023-03-01T15:49:45;21.00;;;10.53;;
22814;SDS011;11574;51.058;13.712;2023-03-01T15:54:48;19.47;;;10.63;;
22814;SDS011;11574;51.058;13.712;2023-03-01T15:59:50;20.10;;;10.87;;
22814;SDS011;11574;51.058;13.712;2023-03-01T16:04:52;18.43;;;10.10;;
22814;SDS011;11574;51.058;13.712;2023-03-01T16:09:57;20.93;;;10.77;;
22814;SDS011;11574;51.058;13.712;2023-03-01T16:14:59;21.07;;;9.80;;
22814;SDS011;11574;51.058;13.712;2023-03-01T16:20:02;18.90;;;10.67;;
22814;SDS011;11574;51.058;13.712;2023-03-01T16:25:08;21.20;;;10.33;;
22814;SDS011;11574;51.058;13.712;2023-03-01T16:30:10;23.40;;;9.47;;
22814;SDS011;11574;51.058;13.712;2023-03-01T16:35:15;23.50;;;10.27;;
22814;SDS011;11574;51.058;13.712;2023-03-01T16:40:20;23.00;;;10.57;;
22814;SDS011;11574;51.058;13.712;2023-03-01T16:45:23;19.83;;;10.33;;
22814;SDS011;11574;51.058;13.712;2023-03-01T16:50:25;21.30;;;10.10;;
22814;SDS011;11574;51.058;13.712;2023-03-01T16:55:29;24.03;;;9.33;;
22814;SDS011;11574;51.058;13.712;2023-03-01T17:00:31;20.53;;;10.40;;
22814;SDS011;11574;51.058;13.712;2023-03-01T17:05:33;23.77;;;11.10;;
22814;SDS011;11574;51.058;13.712;2023-03-01T17:10:37;21.50;;;10.67;;
22814;SDS011;11574;51.058;13.712;2023-03-01T17:15:41;23.67;;;11.73;;
22814;SDS011;11574;51.058;13.712;2023-03-01T17:20:44;22.83;;;11.93;;
22814;SDS011;11574;51.058;13.712;2023-03-01T17:25:47;23.83;;;12.30;;
22814;SDS011;11574;51.058;13.712;2023-03-01T17:30:50;31.47;;;12.40;;
22814;SDS011;11574;51.058;13.712;2023-03-01T17:35:52;26.27;;;11.30;;
22814;SDS011;11574;51.058;13.712;2023-03-01T17:40:55;21.60;;;11.67;;
22814;SDS011;11574;51.058;13.712;2023-03-01T17:45:59;24.77;;;12.23;;
22814;SDS011;11574;51.058;13.712;2023-03-01T17:51:04;32.90;;;15.80;;
22814;SDS011;11574;51.058;13.712;2023-03-01T17:56:08;32.50;;;14.13;;
22814;SDS011;11574;51.058;13.712;2023-03-01T18:01:15;39.10;;;17.63;;
22814;SDS011;11574;51.058;13.712;2023-03-01T18:06:18;38.20;;;19.30;;
22814;SDS011;11574;51.058;13.712;2023-03-01T18:11:22;44.20;;;19.50;;
22814;SDS011;11574;51.058;13.712;2023-03-01T18:16:24;36.60;;;18.10;;
22814;SDS011;11574;51.058;13.712;2023-03-01T18:21:27;44.23;;;21.83;;
22814;SDS011;11574;51.058;13.712;2023-03-01T18:26:31;36.17;;;18.27;;
22814;SDS011;11574;51.058;13.712;2023-03-01T18:31:34;41.10;;;17.97;;
22814;SDS011;11574;51.058;13.712;2023-03-01T18:36:36;43.90;;;16.47;;
22814;SDS011;11574;51.058;13.712;2023-03-01T18:41:39;35.57;;;14.77;;
22814;SDS011;11574;51.058;13.712;2023-03-01T18:46:41;32.37;;;14.07;;
22814;SDS011;11574;51.058;13.712;2023-03-01T18:51:45;28.07;;;14.47;;
22814;SDS011;11574;51.058;13.712;2023-03-01T18:56:48;37.50;;;16.60;;
22814;SDS011;11574;51.058;13.712;2023-03-01T19:01:51;30.70;;;14.57;;
22814;SDS011;11574;51.058;13.712;2023-03-01T19:06:53;42.57;;;16.90;;
22814;SDS011;11574;51.058;13.712;2023-03-01T19:11:58;29.63;;;14.73;;
22814;SDS011;11574;51.058;13.712;2023-03-01T19:17:02;37.73;;;16.67;;
22814;SDS011;11574;51.058;13.712;2023-03-01T19:22:04;34.80;;;15.37;;
22814;SDS011;11574;51.058;13.712;2023-03-01T19:27:09;37.43;;;16.17;;
22814;SDS011;11574;51.058;13.712;2023-03-01T19:37:46;35.73;;;15.73;;
22814;SDS011;11574;51.058;13.712;2023-03-01T19:42:55;29.47;;;14.57;;
22814;SDS011;11574;51.058;13.712;2023-03-01T19:47:58;35.63;;;15.27;;
22814;SDS011;11574;51.058;13.712;2023-03-01T19:53:00;31.93;;;14.97;;
22814;SDS011;11574;51.058;13.712;2023-03-01T19:58:04;26.93;;;13.57;;
22814;SDS011;11574;51.058;13.712;2023-03-01T20:03:06;25.77;;;13.17;;
22814;SDS011;11574;51.058;13.712;2023-03-01T20:08:08;31.03;;;14.27;;
22814;SDS011;11574;51.058;13.712;2023-03-01T20:13:12;30.50;;;14.53;;
22814;SDS011;11574;51.058;13.712;2023-03-01T20:18:14;31.83;;;14.23;;
22814;SDS011;11574;51.058;13.712;2023-03-01T20:23:17;38.43;;;14.97;;
22814;SDS011;11574;51.058;13.712;2023-03-01T20:28:21;36.13;;;14.20;;
22814;SDS011;11574;51.058;13.712;2023-03-01T20:33:23;31.40;;;14.07;;
22814;SDS011;11574;51.058;13.712;2023-03-01T20:38:25;35.63;;;16.03;;
22814;SDS011;11574;51.058;13.712;2023-03-01T20:43:29;36.90;;;18.23;;
22814;SDS011;11574;51.058;13.712;2023-03-01T20:48:32;46.57;;;20.27;;
22814;SDS011;11574;51.058;13.712;2023-03-01T20:53:34;47.37;;;19.97;;
22814;SDS011;11574;51.058;13.712;2023-03-01T20:58:38;50.50;;;20.37;;
22814;SDS011;11574;51.058;13.712;2023-03-01T21:03:41;44.87;;;19.80;;
22814;SDS011;11574;51.058;13.712;2023-03-01T21:08:43;39.47;;;19.57;;
22814;SDS011;11574;51.058;13.712;2023-03-01T21:13:47;47.90;;;19.63;;
22814;SDS011;11574;51.058;13.712;2023-03-01T21:18:49;47.67;;;22.33;;
22814;SDS011;11574;51.058;13.712;2023-03-01T21:23:52;41.20;;;20.17;;
22814;SDS011;11574;51.058;13.712;2023-03-01T21:28:56;51.30;;;20.10;;
22814;SDS011;11574;51.058;13.712;2023-03-01T21:34:00;47.80;;;17.73;;
22814;SDS011;11574;51.058;13.712;2023-03-01T21:39:03;35.07;;;14.77;;
22814;SDS011;11574;51.058;13.712;2023-03-01T21:44:07;46.83;;;19.97;;
22814;SDS011;11574;51.058;13.712;2023-03-01T21:49:10;46.37;;;22.63;;
22814;SDS011;11574;51.058;13.712;2023-03-01T21:54:12;43.70;;;21.83;;
22814;SDS011;11574;51.058;13.712;2023-03-01T21:59:16;45.47;;;22.97;;
22814;SDS011;11574;51.058;13.712;2023-03-01T22:04:19;50.53;;;21.87;;
22814;SDS011;11574;51.058;13.712;2023-03-01T22:09:21;48.00;;;21.73;;
22814;SDS011;11574;51.058;13.712;2023-03-01T22:14:25;49.23;;;21.87;;
22814;SDS011;11574;51.058;13.712;2023-03-01T22:19:27;44.53;;;19.87;;
22814;SDS011;11574;51.058;13.712;2023-03-01T22:24:29;43.30;;;20.67;;
22814;SDS011;11574;51.058;13.712;2023-03-01T22:29:33;45.27;;;21.13;;
22814;SDS011;11574;51.058;13.712;2023-03-01T22:34:35;44.43;;;22.87;;
22814;SDS011;11574;51.058;13.712;2023-03-01T22:39:37;48.37;;;22.90;;
22814;SDS011;11574;51.058;13.712;2023-03-01T22:44:41;52.70;;;23.23;;
22814;SDS011;11574;51.058;13.712;2023-03-01T22:49:44;43.17;;;22.33;;
22814;SDS011;11574;51.058;13.712;2023-03-01T22:54:46;46.70;;;21.37;;
22814;SDS011;11574;51.058;13.712;2023-03-01T22:59:49;42.57;;;21.30;;
22814;SDS011;11574;51.058;13.712;2023-03-01T23:04:51;47.77;;;23.47;;
22814;SDS011;11574;51.058;13.712;2023-03-01T23:09:54;47.10;;;22.93;;
22814;SDS011;11574;51.058;13.712;2023-03-01T23:15:02;48.23;;;22.17;;
22814;SDS011;11574;51.058;13.712;2023-03-01T23:20:06;45.37;;;21.93;;
22814;SDS011;11574;51.058;13.712;2023-03-01T23:25:09;46.70;;;22.33;;
22814;SDS011;11574;51.058;13.712;2023-03-01T23:30:13;48.00;;;22.33;;
22814;SDS011;11574;51.058;13.712;2023-03-01T23:35:16;50.50;;;21.77;;
22814;SDS011;11574;51.058;13.712;2023-03-01T23:40:18;45.27;;;21.40;;
22814;SDS011;11574;51.058;13.712;2023-03-01T23:45:21;42.13;;;19.97;;
22814;SDS011;11574;51.058;13.712;2023-03-01T23:50:24;48.33;;;22.10;;
22814;SDS011;11574;51.058;13.712;2023-03-01T23:55:26;49.43;;;24.40;;
